Time;durP1;ratioP1;P1;durP2;ratioP2;P2;SDS_P1;SDS_P2;PMS_P1;PMS_P2;Temp;Humidity;BMP_temperature;BMP_pressure;BME280_temperature;BME280_humidity;BME280_pressure;Samples;Min_cycle;Max_cycle;Signal;HPM_P1;HPM_P2
2023/07/26 00:02:13;;;;;;;9.57;7.90;;;;;;;18.53;51.66;99373.34;10321768;28;20965;-35
2023/07/26 00:07:14;;;;;;;8.43;7.63;;;;;;;18.25;51.93;99378.56;10331004;28;20226;-35
2023/07/26 00:12:16;;;;;;;9.13;7.20;;;;;;;17.92;52.27;99406.41;10332902;28;20311;-35
2023/07/26 00:17:18;;;;;;;6.63;5.97;;;;;;;17.85;52.25;99386.78;10331469;28;20616;-35
2023/07/26 00:22:20;;;;;;;5.63;4.90;;;;;;;17.10;52.18;99410.16;10335299;28;20230;-35
2023/07/26 00:27:21;;;;;;;5.03;4.43;;;;;;;17.58;50.27;99482.03;10332485;28;20343;-35
2023/07/26 00:32:23;;;;;;;6.37;4.10;;;;;;;19.19;48.40;99368.06;10330954;28;20213;-35
2023/07/26 00:37:25;;;;;;;4.47;4.03;;;;;;;18.20;49.45;99465.16;10328910;28;20233;-35
2023/07/26 00:42:27;;;;;;;4.87;4.40;;;;;;;17.94;49.90;99453.00;10295266;28;20211;-35
2023/07/26 00:47:29;;;;;;;7.37;4.67;;;;;;;17.19;51.62;99438.44;10295742;28;20233;-34
2023/07/26 00:52:32;;;;;;;6.73;4.67;;;;;;;18.46;49.56;99392.47;10292261;28;20215;-35
2023/07/26 00:57:35;;;;;;;7.97;4.83;;;;;;;18.40;49.17;99472.81;10295283;28;20235;-35
2023/07/26 01:02:36;;;;;;;5.73;4.60;;;;;;;16.64;53.36;99420.69;10297816;28;20218;-35
2023/07/26 01:07:41;;;;;;;5.90;5.10;;;;;;;17.52;52.18;99343.13;10293864;28;20239;-35
2023/07/26 01:12:48;;;;;;;6.73;5.80;;;;;;;17.20;51.49;99461.72;10297633;28;20226;-35
2023/07/26 01:18:10;;;;;;;6.40;4.83;;;;;;;17.63;51.54;99417.25;10292170;28;20253;-35
2023/07/26 01:23:12;;;;;;;8.03;5.70;;;;;;;17.98;50.27;99434.38;10293764;28;20258;-35
2023/07/26 01:28:13;;;;;;;7.97;5.47;;;;;;;17.08;51.55;99521.22;10288336;28;20323;-35
2023/07/26 01:33:17;;;;;;;6.43;5.73;;;;;;;16.52;53.29;99482.00;10294486;28;20211;-35
2023/07/26 01:38:20;;;;;;;8.40;5.87;;;;;;;17.81;51.36;99380.22;10299865;28;20237;-35
2023/07/26 01:43:22;;;;;;;8.47;5.80;;;;;;;16.81;52.28;99497.28;10333655;28;20237;-35
2023/07/26 01:48:24;;;;;;;9.90;5.73;;;;;;;18.53;49.72;99367.94;10329143;28;20238;-35
2023/07/26 01:53:25;;;;;;;5.40;4.90;;;;;;;17.19;52.06;99441.16;10330214;28;20316;-35
2023/07/26 01:58:27;;;;;;;6.87;5.33;;;;;;;16.81;53.20;99426.22;10326190;28;20670;-35
2023/07/26 02:03:30;;;;;;;6.00;5.17;;;;;;;17.73;51.83;99346.25;10331882;28;20801;-36
2023/07/26 02:08:31;;;;;;;6.17;5.57;;;;;;;16.29;53.93;99439.53;10323363;28;20241;-35
2023/07/26 02:13:33;;;;;;;7.97;5.43;;;;;;;16.84;51.72;99489.78;10289690;28;20230;-35
2023/07/26 02:18:35;;;;;;;7.77;5.37;;;;;;;15.96;53.70;99522.59;10295839;28;20782;-38
2023/07/26 02:23:37;;;;;;;5.43;4.77;;;;;;;17.75;50.18;99408.25;10315140;28;20209;-35
2023/07/26 02:28:39;;;;;;;5.43;4.80;;;;;;;17.29;50.77;99433.28;10314705;28;20387;-35
2023/07/26 02:33:41;;;;;;;5.57;4.73;;;;;;;16.86;51.99;99429.03;10313035;28;20668;-35
2023/07/26 02:38:43;;;;;;;7.43;5.63;;;;;;;16.07;52.95;99486.72;10314085;28;20233;-35
2023/07/26 02:43:44;;;;;;;7.53;4.83;;;;;;;17.49;50.38;99397.69;10318713;28;20356;-35
2023/07/26 02:48:46;;;;;;;7.17;5.20;;;;;;;15.64;52.58;99548.88;10315307;28;20260;-36
2023/07/26 02:53:49;;;;;;;6.57;4.87;;;;;;;16.00;52.01;99504.88;10317120;28;20214;-35
2023/07/26 02:58:50;;;;;;;6.07;5.47;;;;;;;16.99;50.50;99433.44;10315176;28;20277;-35
2023/07/26 03:03:52;;;;;;;6.23;4.70;;;;;;;16.38;51.49;99481.34;10313937;28;20867;-35
2023/07/26 03:08:54;;;;;;;6.80;5.27;;;;;;;16.62;51.29;99474.94;10316766;28;20244;-35
2023/07/26 03:13:56;;;;;;;5.10;4.60;;;;;;;15.92;52.09;99540.25;10316241;28;20225;-35
2023/07/26 03:18:58;;;;;;;6.40;5.33;;;;;;;17.31;49.48;99500.66;10315468;28;20292;-35
2023/07/26 03:24:00;;;;;;;6.27;4.83;;;;;;;17.59;49.13;99455.78;10312001;28;20225;-35
2023/07/26 03:29:01;;;;;;;6.47;4.53;;;;;;;17.12;49.41;99551.28;10317041;28;20229;-35
2023/07/26 03:34:03;;;;;;;6.50;5.83;;;;;;;15.45;53.01;99592.00;10314053;28;20255;-35
2023/07/26 03:39:05;;;;;;;6.83;5.50;;;;;;;17.47;49.51;99505.31;10314886;28;20253;-35
2023/07/26 03:44:07;;;;;;;8.10;5.63;;;;;;;17.54;49.14;99492.50;10309785;28;20695;-35
2023/07/26 03:49:09;;;;;;;7.30;5.67;;;;;;;16.38;51.50;99562.34;10323432;28;20281;-35
2023/07/26 03:54:11;;;;;;;6.80;6.10;;;;;;;17.69;49.04;99483.09;10321419;28;20238;-36
2023/07/26 03:59:13;;;;;;;8.97;5.60;;;;;;;16.81;50.64;99539.72;10309578;28;20229;-36
2023/07/26 04:04:14;;;;;;;6.33;5.43;;;;;;;17.08;50.38;99488.78;10323971;28;20233;-36
2023/07/26 04:09:16;;;;;;;7.00;5.60;;;;;;;16.39;51.55;99564.81;10317538;28;20229;-36
2023/07/26 04:14:18;;;;;;;6.57;5.87;;;;;;;15.74;53.20;99545.66;10321070;28;20230;-36
2023/07/26 04:19:20;;;;;;;8.60;6.17;;;;;;;15.73;52.88;99582.63;10322516;28;20642;-35
2023/07/26 04:24:22;;;;;;;6.73;6.03;;;;;;;16.49;51.89;99501.34;10319193;28;20238;-36
2023/07/26 04:29:24;;;;;;;10.10;7.37;;;;;;;16.04;52.87;99540.31;10320321;28;20288;-36
2023/07/26 04:34:26;;;;;;;8.20;7.27;;;;;;;15.63;54.30;99486.03;10320802;28;20283;-36
2023/07/26 04:39:28;;;;;;;10.20;7.93;;;;;;;16.22;52.72;99504.41;10321937;28;20210;-36
2023/07/26 04:44:30;;;;;;;8.87;7.27;;;;;;;16.76;51.17;99528.78;10319371;28;20241;-36
2023/07/26 04:49:31;;;;;;;8.30;7.40;;;;;;;18.43;49.00;99431.69;10319327;28;20230;-36
2023/07/26 04:54:33;;;;;;;8.83;7.70;;;;;;;17.35;49.78;99602.69;10319536;28;20415;-36
2023/07/26 04:59:36;;;;;;;7.53;6.73;;;;;;;17.46;49.87;99584.00;10317213;28;21089;-36
2023/07/26 05:04:37;;;;;;;9.27;7.10;;;;;;;16.00;52.54;99636.31;10319287;28;20457;-36
2023/07/26 05:09:39;;;;;;;10.63;7.23;;;;;;;16.78;51.67;99545.56;10318775;28;20213;-36
2023/07/26 05:14:43;;;;;;;8.10;6.90;;;;;;;15.78;53.73;99614.31;10315791;28;20806;-36
2023/07/26 05:19:44;;;;;;;8.43;6.70;;;;;;;16.08;53.54;99584.72;10310516;28;20233;-36
2023/07/26 05:24:46;;;;;;;7.10;5.90;;;;;;;16.31;53.15;99565.13;10310470;28;20691;-36
2023/07/26 05:29:48;;;;;;;8.97;6.30;;;;;;;15.84;53.37;99632.28;10307112;28;20728;-36
2023/07/26 05:34:54;;;;;;;9.70;6.17;;;;;;;16.23;53.08;99601.34;10308995;28;20737;-36
2023/07/26 05:39:55;;;;;;;10.30;5.47;;;;;;;16.52;52.26;99614.31;10309343;28;20230;-36
2023/07/26 05:44:57;;;;;;;8.03;5.63;;;;;;;17.39;50.39;99588.69;10308752;28;20252;-36
2023/07/26 05:49:59;;;;;;;7.67;5.20;;;;;;;16.28;51.97;99678.16;10309683;28;20230;-35
2023/07/26 05:55:01;;;;;;;6.07;5.40;;;;;;;16.50;52.34;99616.41;10310568;28;20229;-36
2023/07/26 06:00:03;;;;;;;5.93;5.27;;;;;;;16.28;53.11;99618.75;10306280;28;20229;-36
2023/07/26 06:05:05;;;;;;;7.53;5.80;;;;;;;17.16;51.22;99577.63;10308836;28;20598;-36
2023/07/26 06:10:08;;;;;;;7.77;5.13;;;;;;;17.15;51.44;99591.38;10308160;28;21097;-35
2023/07/26 06:15:11;;;;;;;6.93;5.17;;;;;;;16.93;51.63;99637.03;10307005;28;21468;-36
2023/07/26 06:20:12;;;;;;;7.07;5.30;;;;;;;16.61;52.37;99643.47;10305896;28;20344;-36
2023/07/26 06:25:14;;;;;;;6.50;5.17;;;;;;;17.02;52.13;99586.19;10309714;28;20266;-36
2023/07/26 06:30:16;;;;;;;6.53;5.53;;;;;;;17.43;50.68;99652.09;10307453;28;20229;-36
2023/07/26 06:35:18;;;;;;;5.87;5.27;;;;;;;18.75;49.25;99525.97;10293880;28;20233;-36
2023/07/26 06:40:20;;;;;;;6.40;5.10;;;;;;;18.10;49.31;99690.50;10293002;28;20230;-36
2023/07/26 06:45:21;;;;;;;6.17;4.97;;;;;;;17.90;50.25;99623.19;10305954;28;20230;-36
2023/07/26 06:50:23;;;;;;;4.87;4.20;;;;;;;17.58;50.71;99643.50;10306107;28;20276;-36
2023/07/26 06:55:25;;;;;;;7.40;4.87;;;;;;;17.60;50.40;99677.41;10309548;28;20897;-36
2023/07/26 07:00:27;;;;;;;6.00;4.90;;;;;;;16.67;52.25;99703.88;10308412;28;20233;-36
2023/07/26 07:05:30;;;;;;;7.27;4.77;;;;;;;16.99;51.68;99666.69;10307798;28;20607;-36
2023/07/26 07:10:32;;;;;;;7.20;5.03;;;;;;;18.13;50.18;99599.03;10304382;28;20237;-36
2023/07/26 07:15:34;;;;;;;7.33;5.57;;;;;;;16.78;52.04;99702.28;10305961;28;20638;-36
2023/07/26 07:20:35;;;;;;;5.73;5.13;;;;;;;17.45;51.85;99629.16;10307401;28;20660;-36
2023/07/26 07:25:38;;;;;;;6.47;5.20;;;;;;;18.03;51.61;99535.47;10311616;28;20415;-37
2023/07/26 07:30:40;;;;;;;6.27;5.67;;;;;;;17.37;51.77;99648.44;10314952;28;20244;-36
2023/07/26 07:35:42;;;;;;;6.67;5.63;;;;;;;17.22;52.36;99602.91;10317061;28;20257;-36
2023/07/26 07:40:43;;;;;;;6.03;5.13;;;;;;;17.51;51.98;99579.53;10313204;28;21083;-36
2023/07/26 07:45:45;;;;;;;6.77;5.37;;;;;;;18.74;49.78;99534.34;10297217;28;20234;-36
2023/07/26 07:50:56;;;;;;;5.73;5.13;;;;;;;17.44;52.13;99603.16;10283421;28;20234;-37
2023/07/26 07:55:58;;;;;;;5.40;4.87;;;;;;;17.78;50.81;99651.31;10313637;28;20230;-36
2023/07/26 08:00:59;;;;;;;6.13;4.77;;;;;;;18.44;50.42;99560.69;10303057;28;20309;-36
2023/07/26 08:06:01;;;;;;;9.37;4.97;;;;;;;17.68;51.12;99622.13;10316841;28;20715;-36
2023/07/26 08:11:03;;;;;;;6.13;4.97;;;;;;;17.60;50.79;99647.66;10328190;28;20288;-36
2023/07/26 08:16:05;;;;;;;10.03;5.47;;;;;;;18.28;50.20;99602.88;10329207;28;20442;-36
2023/07/26 08:21:07;;;;;;;6.50;5.20;;;;;;;16.71;52.62;99728.56;10327119;28;20226;-36
2023/07/26 08:26:09;;;;;;;6.73;5.00;;;;;;;19.10;49.25;99589.22;10298015;28;22336;-36
2023/07/26 08:31:11;;;;;;;6.30;5.40;;;;;;;17.50;52.19;99607.66;10287730;28;20242;-36
2023/07/26 08:36:13;;;;;;;5.17;4.63;;;;;;;19.25;49.00;99564.22;10287123;28;20745;-36
2023/07/26 08:41:15;;;;;;;5.90;5.30;;;;;;;18.34;50.16;99658.00;10285957;28;20239;-36
2023/07/26 08:46:17;;;;;;;7.07;5.30;;;;;;;19.32;48.74;99592.03;10288814;28;20246;-37
2023/07/26 08:51:20;;;;;;;5.50;4.57;;;;;;;18.27;50.09;99622.88;10306031;28;20724;-36
2023/07/26 08:56:26;;;;;;;5.93;4.70;;;;;;;17.19;50.66;99714.22;10313353;28;20234;-36
2023/07/26 09:01:29;;;;;;;5.37;4.87;;;;;;;17.77;50.64;99684.88;10290319;28;20245;-36
2023/07/26 09:06:48;;;;;;;5.20;4.07;;;;;;;18.49;49.26;99637.69;10282003;28;20229;-36
2023/07/26 09:11:51;;;;;;;5.17;4.53;;;;;;;17.42;51.60;99648.56;10284940;28;20245;-36
2023/07/26 09:16:57;;;;;;;4.57;3.90;;;;;;;18.67;49.50;99612.28;10291976;28;20285;-36
2023/07/26 09:22:01;;;;;;;4.93;3.97;;;;;;;18.24;49.33;99679.41;10285481;28;20230;-36
2023/07/26 09:27:11;;;;;;;4.87;3.40;;;;;;;19.29;48.74;99601.47;10282021;28;20338;-36
2023/07/26 09:32:13;;;;;;;3.67;3.37;;;;;;;18.74;48.57;99670.72;10286050;28;20234;-36
2023/07/26 09:37:19;;;;;;;4.00;3.60;;;;;;;17.25;50.16;99693.56;10282505;28;20233;-36
2023/07/26 09:42:21;;;;;;;3.90;3.60;;;;;;;18.34;48.44;99717.59;10283507;28;20784;-36
2023/07/26 09:47:34;;;;;;;4.20;3.83;;;;;;;18.31;47.83;99715.34;10278778;28;20245;-36
2023/07/26 09:52:43;;;;;;;5.43;3.73;;;;;;;18.60;47.11;99696.44;10285678;28;20241;-36
2023/07/26 09:57:46;;;;;;;3.27;2.97;;;;;;;20.09;45.55;99602.09;10281326;28;20689;-36
2023/07/26 10:02:59;;;;;;;5.17;3.40;;;;;;;19.20;46.71;99632.78;10295915;28;20208;-36
2023/07/26 10:08:02;;;;;;;3.73;3.03;;;;;;;18.61;47.71;99676.41;10277373;28;20658;-36
2023/07/26 10:13:04;;;;;;;3.87;2.83;;;;;;;18.81;46.46;99724.75;10284740;28;20734;-36
2023/07/26 10:18:06;;;;;;;4.13;2.60;;;;;;;19.61;46.34;99602.78;10284328;28;20775;-36
2023/07/26 10:23:10;;;;;;;4.73;2.80;;;;;;;19.34;45.33;99692.97;10280096;28;20571;-36
2023/07/26 10:28:14;;;;;;;3.50;2.97;;;;;;;19.61;45.64;99659.78;10283953;28;20230;-36
2023/07/26 10:33:16;;;;;;;3.33;3.03;;;;;;;20.21;45.16;99634.59;10281021;28;20261;-36
2023/07/26 10:38:19;;;;;;;3.93;2.60;;;;;;;19.75;44.22;99670.06;10280330;28;20282;-36
2023/07/26 10:43:20;;;;;;;4.93;3.00;;;;;;;20.05;44.48;99630.00;10278167;28;20234;-36
2023/07/26 10:48:22;;;;;;;3.17;2.70;;;;;;;19.33;45.61;99688.59;10280283;28;20246;-36
2023/07/26 10:53:33;;;;;;;4.57;2.90;;;;;;;19.39;45.36;99598.91;10282283;28;20230;-36
2023/07/26 10:58:35;;;;;;;3.67;2.37;;;;;;;19.76;44.73;99654.56;10277624;28;20237;-36
2023/07/26 11:06:21;;;;;;;4.47;2.97;;;;;;;15.68;50.96;99521.25;10313622;28;20861;-70
2023/07/26 11:11:26;;;;;;;3.60;2.47;;;;;;;16.49;47.78;99477.03;10284396;28;20265;-71
2023/07/26 11:16:31;;;;;;;3.13;2.80;;;;;;;16.47;47.82;99538.56;10291175;28;20236;-69
2023/07/26 11:21:35;;;;;;;5.20;3.23;;;;;;;17.47;47.04;99475.56;10288228;28;20321;-72
2023/07/26 11:26:44;;;;;;;3.57;2.77;;;;;;;16.83;47.60;99537.59;10295669;28;20237;-71
2023/07/26 11:31:48;;;;;;;3.90;3.20;;;;;;;16.19;48.04;99600.13;10289744;28;20237;-71
2023/07/26 11:36:50;;;;;;;5.07;2.60;;;;;;;15.52;49.41;99617.03;10294948;28;20657;-69
2023/07/26 11:41:52;;;;;;;4.43;2.93;;;;;;;16.77;47.67;99527.72;10294813;28;20651;-71
2023/07/26 11:46:54;;;;;;;3.10;2.80;;;;;;;16.72;46.82;99514.91;10295013;28;20245;-71
2023/07/26 11:51:56;;;;;;;5.17;2.60;;;;;;;17.01;47.17;99512.41;10292060;28;20241;-69
2023/07/26 11:57:01;;;;;;;3.10;2.73;;;;;;;17.34;47.06;99513.69;10294115;28;20242;-69
2023/07/26 12:02:04;;;;;;;3.73;2.93;;;;;;;16.91;46.97;99571.56;10293725;28;20271;-71
2023/07/26 12:07:09;;;;;;;4.63;3.20;;;;;;;16.91;45.81;99607.53;10289806;28;20245;-71
2023/07/26 12:12:11;;;;;;;5.00;2.63;;;;;;;16.51;45.84;99618.88;10292691;28;20234;-71
2023/07/26 12:17:13;;;;;;;3.00;2.63;;;;;;;17.73;45.30;99536.50;10271908;28;20239;-70
2023/07/26 12:22:15;;;;;;;4.07;2.80;;;;;;;17.18;45.10;99642.28;10261621;28;20632;-71
2023/07/26 12:27:17;;;;;;;4.28;3.08;;;;;;;17.44;45.35;99670.78;10265144;28;20661;-71
2023/07/26 12:32:18;;;;;;;4.60;2.80;;;;;;;17.66;45.42;99619.69;10262635;28;20242;-71
2023/07/26 12:37:29;;;;;;;4.73;3.13;;;;;;;18.20;44.50;99587.00;10263854;28;20813;-71
2023/07/26 12:42:30;;;;;;;4.20;2.80;;;;;;;17.24;44.16;99644.09;10261827;28;20238;-71
2023/07/26 12:47:32;;;;;;;3.90;3.00;;;;;;;18.06;42.81;99616.22;10264855;28;20329;-70
2023/07/26 12:52:37;;;;;;;2.47;2.20;;;;;;;17.81;43.30;99645.44;10262116;28;20211;-71
2023/07/26 12:57:39;;;;;;;3.50;2.77;;;;;;;17.62;42.67;99675.28;10264387;28;20242;-70
2023/07/26 13:02:41;;;;;;;3.23;2.80;;;;;;;17.96;42.20;99597.03;10261236;28;20246;-70
2023/07/26 13:07:43;;;;;;;4.05;2.72;;;;;;;18.89;41.80;99590.72;10262514;28;20328;-70
2023/07/26 13:12:44;;;;;;;2.78;2.42;;;;;;;19.43;42.15;99560.44;10262157;28;20587;-70
2023/07/26 13:17:47;;;;;;;2.70;2.50;;;;;;;18.87;42.09;99617.25;10265038;28;20235;-70
2023/07/26 13:22:49;;;;;;;3.83;2.78;;;;;;;18.34;42.22;99639.03;10261478;28;20234;-70
2023/07/26 13:27:51;;;;;;;6.53;3.07;;;;;;;17.88;42.13;99695.69;10259725;28;20249;-70
2023/07/26 13:32:53;;;;;;;3.47;2.67;;;;;;;18.06;42.04;99702.84;10261281;28;20293;-70
2023/07/26 13:37:55;;;;;;;3.13;2.83;;;;;;;17.94;42.17;99703.94;10258002;28;20288;-69
2023/07/26 13:42:56;;;;;;;5.95;3.17;;;;;;;16.63;47.19;99651.34;10261413;28;20737;-69
2023/07/26 13:47:58;;;;;;;4.73;3.10;;;;;;;15.96;49.87;99570.31;10257864;28;20322;-69
2023/07/26 13:53:00;;;;;;;3.20;2.47;;;;;;;17.04;48.33;99544.38;10254865;28;20235;-69
2023/07/26 13:58:02;;;;;;;2.80;2.53;;;;;;;15.95;49.70;99652.34;10264695;28;20267;-70
2023/07/26 14:03:03;;;;;;;2.80;2.60;;;;;;;18.11;47.34;99474.72;10258159;28;20230;-70
2023/07/26 14:08:07;;;;;;;2.60;2.40;;;;;;;17.76;44.72;99545.19;10259552;28;20609;-70
2023/07/26 14:13:10;;;;;;;2.17;1.97;;;;;;;17.23;44.83;99664.06;10261824;28;20230;-69
2023/07/26 14:18:12;;;;;;;2.47;2.00;;;;;;;17.43;43.74;99636.69;10262941;28;20243;-69
2023/07/26 14:23:14;;;;;;;2.17;1.97;;;;;;;16.99;43.49;99666.69;10260307;28;22614;-70
2023/07/26 14:28:16;;;;;;;1.95;1.85;;;;;;;17.01;42.75;99708.91;10260607;28;20655;-72
2023/07/26 14:33:18;;;;;;;2.03;1.83;;;;;;;17.97;42.55;99609.53;10259026;28;21023;-69
2023/07/26 14:38:20;;;;;;;2.30;2.00;;;;;;;18.42;42.24;99611.56;10260471;28;20285;-69
2023/07/26 14:43:22;;;;;;;3.95;2.40;;;;;;;18.53;41.72;99647.81;10262189;28;20746;-69
2023/07/26 14:48:24;;;;;;;2.80;2.38;;;;;;;18.42;41.15;99662.19;10258768;28;20242;-72
2023/07/26 14:53:25;;;;;;;2.53;2.33;;;;;;;19.64;41.37;99581.41;10255725;28;20245;-71
2023/07/26 14:58:27;;;;;;;6.57;2.72;;;;;;;19.39;40.98;99634.16;10265428;28;20309;-71
2023/07/26 15:03:29;;;;;;;2.10;1.95;;;;;;;19.10;41.76;99654.31;10263055;28;20499;-71
2023/07/26 15:08:31;;;;;;;3.05;2.30;;;;;;;19.62;41.20;99642.41;10260193;28;20612;-71
2023/07/26 15:13:33;;;;;;;4.55;2.22;;;;;;;19.56;40.95;99630.66;10260195;28;20250;-69
2023/07/26 15:18:35;;;;;;;2.22;2.03;;;;;;;19.97;40.76;99600.56;10260982;28;20245;-69
2023/07/26 15:23:36;;;;;;;4.13;2.42;;;;;;;19.75;40.00;99640.19;10263080;28;20261;-70
2023/07/26 15:28:38;;;;;;;10.48;2.65;;;;;;;19.76;40.79;99635.56;10260137;28;20266;-71
2023/07/26 15:33:40;;;;;;;2.33;1.90;;;;;;;20.03;40.65;99572.41;10262099;28;20234;-69
2023/07/26 15:38:42;;;;;;;2.60;2.20;;;;;;;20.01;40.36;99620.69;10260389;28;20239;-72
2023/07/26 15:43:43;;;;;;;3.22;2.35;;;;;;;19.68;41.25;99625.13;10260351;28;20287;-71
2023/07/26 15:48:48;;;;;;;2.38;2.17;;;;;;;21.26;39.22;99535.56;10256685;28;20637;-71
2023/07/26 15:53:50;;;;;;;2.40;2.20;;;;;;;20.09;40.16;99588.50;10267131;28;20249;-70
2023/07/26 15:58:52;;;;;;;3.28;1.98;;;;;;;20.82;39.82;99569.22;10273371;28;20245;-70
2023/07/26 16:03:54;;;;;;;4.18;2.17;;;;;;;20.56;40.20;99610.78;10262861;28;20341;-71
2023/07/26 16:08:57;;;;;;;5.18;2.40;;;;;;;21.10;39.61;99563.72;10270340;28;20249;-71
2023/07/26 16:14:19;;;;;;;3.28;2.40;;;;;;;20.38;40.00;99629.09;10264085;28;20238;-71
2023/07/26 16:19:23;;;;;;;3.03;2.45;;;;;;;19.95;40.16;99608.94;10266704;28;20688;-71
2023/07/26 16:24:28;;;;;;;4.43;2.30;;;;;;;20.70;39.60;99554.94;10264660;28;20236;-71
2023/07/26 16:29:32;;;;;;;2.42;2.20;;;;;;;21.12;38.93;99559.69;10263894;28;20230;-71
2023/07/26 16:34:34;;;;;;;3.58;2.60;;;;;;;21.19;38.53;99541.22;10269655;28;20238;-71
2023/07/26 16:39:36;;;;;;;2.88;2.20;;;;;;;20.21;39.16;99633.75;10263560;28;20253;-71
2023/07/26 16:44:38;;;;;;;3.17;2.17;;;;;;;21.49;38.15;99523.50;10263671;28;20242;-71
2023/07/26 16:49:40;;;;;;;2.70;2.28;;;;;;;20.88;39.02;99604.63;10269049;28;20268;-71
2023/07/26 16:54:41;;;;;;;3.30;2.50;;;;;;;20.59;39.15;99596.69;10264589;28;20613;-71
2023/07/26 16:59:44;;;;;;;3.28;2.22;;;;;;;20.94;39.17;99495.63;10266451;28;20238;-71
2023/07/26 17:04:45;;;;;;;3.22;2.25;;;;;;;19.57;39.57;99625.00;10265466;28;20233;-71
2023/07/26 17:09:47;;;;;;;4.60;2.75;;;;;;;21.23;39.43;99470.78;10269473;28;20653;-69
2023/07/26 17:14:49;;;;;;;3.00;2.65;;;;;;;20.90;38.83;99538.00;10260624;28;20285;-69
2023/07/26 17:19:50;;;;;;;2.53;1.90;;;;;;;21.31;38.09;99513.81;10265486;28;20238;-69
2023/07/26 17:24:52;;;;;;;4.13;2.55;;;;;;;21.15;38.83;99531.94;10265527;28;20709;-69
2023/07/26 17:29:54;;;;;;;3.42;2.13;;;;;;;20.85;39.60;99540.69;10262804;28;20602;-69
2023/07/26 17:34:56;;;;;;;3.53;2.20;;;;;;;21.08;38.79;99563.19;10263737;28;20322;-69
2023/07/26 17:39:57;;;;;;;2.55;2.10;;;;;;;20.24;38.59;99615.03;10263137;28;20238;-66
2023/07/26 17:44:59;;;;;;;3.60;2.35;;;;;;;20.91;38.14;99449.91;10262422;28;20234;-69
2023/07/26 17:50:01;;;;;;;3.38;2.17;;;;;;;21.30;38.55;99514.09;10266732;28;20242;-67
2023/07/26 17:55:04;;;;;;;4.97;2.45;;;;;;;20.92;39.07;99549.47;10259964;28;20231;-66
2023/07/26 18:00:06;;;;;;;3.05;2.60;;;;;;;20.73;39.55;99548.16;10263369;28;20431;-67
2023/07/26 18:05:08;;;;;;;2.47;2.28;;;;;;;21.93;38.33;99474.09;10266157;28;20262;-70
2023/07/26 18:10:10;;;;;;;2.20;2.00;;;;;;;20.58;40.20;99592.31;10257030;28;20239;-67
2023/07/26 18:15:11;;;;;;;2.88;2.25;;;;;;;20.68;40.50;99595.97;10264403;28;20687;-69
2023/07/26 18:20:13;;;;;;;3.08;2.42;;;;;;;20.31;39.94;99590.41;10260032;28;20237;-69
2023/07/26 18:25:15;;;;;;;2.25;2.05;;;;;;;20.66;39.84;99565.50;10260880;28;20241;-69
2023/07/26 18:30:17;;;;;;;2.75;2.33;;;;;;;22.11;38.56;99505.50;10259539;28;20648;-69
2023/07/26 18:35:19;;;;;;;5.15;2.22;;;;;;;21.47;39.56;99552.84;10263193;28;20239;-69
2023/07/26 18:40:22;;;;;;;2.85;2.05;;;;;;;19.70;42.76;99536.94;10260289;28;20648;-66
2023/07/26 18:45:24;;;;;;;3.28;2.40;;;;;;;19.54;43.72;99540.50;10259447;28;20234;-68
2023/07/26 18:50:25;;;;;;;3.45;2.53;;;;;;;20.07;43.34;99475.75;10259706;28;20235;-69
2023/07/26 18:55:27;;;;;;;2.78;2.10;;;;;;;19.79;43.68;99491.19;10266436;28;20233;-69
2023/07/26 19:00:29;;;;;;;3.35;2.10;;;;;;;19.91;43.67;99491.88;10260546;28;20231;-68
2023/07/26 19:05:31;;;;;;;3.17;2.55;;;;;;;20.48;42.93;99522.38;10263742;28;20268;-69
2023/07/26 19:10:40;;;;;;;3.25;2.00;;;;;;;20.28;43.29;99542.03;10262615;28;20234;-67
2023/07/26 19:15:42;;;;;;;3.88;2.63;;;;;;;19.64;44.00;99584.09;10266983;28;20242;-69
2023/07/26 19:20:43;;;;;;;3.05;2.30;;;;;;;20.23;43.04;99561.00;10262922;28;20250;-69
2023/07/26 19:25:45;;;;;;;3.85;2.97;;;;;;;20.04;43.54;99525.13;10266052;28;20325;-69
2023/07/26 19:30:47;;;;;;;3.10;2.30;;;;;;;19.66;43.64;99592.81;10268402;28;20253;-69
2023/07/26 19:35:56;;;;;;;2.40;2.20;;;;;;;19.85;43.64;99557.22;10270953;28;20230;-68
2023/07/26 19:40:59;;;;;;;4.70;2.30;;;;;;;19.60;44.01;99525.16;10276762;28;20397;-69
2023/07/26 19:46:02;;;;;;;4.00;2.23;;;;;;;19.21;44.26;99561.19;10266080;28;20235;-69
2023/07/26 19:51:04;;;;;;;3.08;2.42;;;;;;;18.65;45.32;99583.53;10268650;28;20612;-68
2023/07/26 19:56:06;;;;;;;4.47;2.60;;;;;;;18.90;44.40;99565.28;10273418;28;20223;-68
2023/07/26 20:01:07;;;;;;;3.83;2.50;;;;;;;19.51;44.31;99487.56;10273236;28;20230;-68
2023/07/26 20:06:09;;;;;;;3.67;2.67;;;;;;;18.56;44.84;99609.41;10280955;28;20273;-67
2023/07/26 20:11:11;;;;;;;2.80;2.30;;;;;;;19.00;44.85;99532.94;10277577;28;20741;-68
2023/07/26 20:16:13;;;;;;;2.53;1.93;;;;;;;19.27;43.80;99575.66;10277600;28;20322;-68
2023/07/26 20:21:15;;;;;;;2.60;2.40;;;;;;;19.36;44.45;99520.72;10272099;28;20235;-68
2023/07/26 20:26:17;;;;;;;2.60;2.40;;;;;;;18.90;45.08;99530.03;10272782;28;20238;-68
2023/07/26 20:31:18;;;;;;;5.30;2.60;;;;;;;18.83;45.21;99554.59;10279957;28;20238;-68
2023/07/26 20:36:20;;;;;;;3.27;2.60;;;;;;;18.76;45.65;99529.50;10274592;28;20231;-68
2023/07/26 20:41:22;;;;;;;3.43;2.50;;;;;;;18.59;45.17;99589.94;10281864;28;20238;-68
2023/07/26 20:46:23;;;;;;;3.17;2.37;;;;;;;18.55;45.70;99553.53;10277710;28;20348;-68
2023/07/26 20:51:25;;;;;;;2.90;2.57;;;;;;;19.41;44.55;99465.72;10283550;28;20614;-68
2023/07/26 20:56:27;;;;;;;2.97;2.63;;;;;;;18.36;46.04;99557.53;10275026;28;20320;-68
2023/07/26 21:01:29;;;;;;;3.50;2.67;;;;;;;17.84;46.66;99574.59;10284724;28;20234;-68
2023/07/26 21:06:31;;;;;;;2.87;2.57;;;;;;;18.60;46.10;99463.41;10277118;28;20860;-68
2023/07/26 21:11:33;;;;;;;3.13;2.43;;;;;;;18.48;45.85;99514.16;10278709;28;20386;-67
2023/07/26 21:16:35;;;;;;;3.63;2.93;;;;;;;18.45;46.17;99510.03;10276802;28;20243;-68
2023/07/26 21:21:37;;;;;;;4.07;3.10;;;;;;;18.30;46.40;99501.63;10276468;28;20238;-69
2023/07/26 21:26:39;;;;;;;3.23;2.80;;;;;;;18.84;45.68;99458.63;10274887;28;20235;-68
2023/07/26 21:31:41;;;;;;;5.27;2.90;;;;;;;18.47;45.73;99534.97;10279696;28;20553;-68
2023/07/26 21:36:43;;;;;;;3.93;2.93;;;;;;;18.58;45.92;99509.72;10276774;28;20266;-68
2023/07/26 21:41:45;;;;;;;3.40;2.83;;;;;;;19.46;44.80;99505.66;10274289;28;20238;-70
2023/07/26 21:46:47;;;;;;;2.67;2.47;;;;;;;18.96;45.20;99508.22;10277490;28;20227;-68
2023/07/26 21:51:49;;;;;;;4.77;2.93;;;;;;;18.73;46.05;99517.28;10268063;28;20241;-68
2023/07/26 21:56:50;;;;;;;4.50;3.00;;;;;;;18.57;46.00;99537.03;10276328;28;20657;-68
2023/07/26 22:01:52;;;;;;;3.30;2.80;;;;;;;17.99;46.93;99585.75;10279528;28;20234;-68
2023/07/26 22:06:54;;;;;;;2.70;2.50;;;;;;;18.74;46.37;99505.38;10272731;28;20241;-67
2023/07/26 22:11:55;;;;;;;3.43;2.60;;;;;;;18.86;45.99;99488.19;10238451;28;20237;-66
2023/07/26 22:16:57;;;;;;;3.53;2.43;;;;;;;18.68;46.04;99509.06;10225852;28;20286;-69
2023/07/26 22:21:59;;;;;;;3.80;2.83;;;;;;;17.87;46.86;99572.22;10264109;28;20234;-69
2023/07/26 22:27:02;;;;;;;4.83;2.83;;;;;;;18.64;46.20;99470.81;10273199;28;20238;-69
2023/07/26 22:32:04;;;;;;;3.67;2.87;;;;;;;17.67;47.26;99574.50;10271355;28;20583;-69
2023/07/26 22:37:06;;;;;;;3.00;2.60;;;;;;;18.00;47.66;99480.97;10270386;28;20298;-69
2023/07/26 22:42:08;;;;;;;4.63;3.10;;;;;;;18.28;46.70;99491.84;10270117;28;20321;-68
2023/07/26 22:47:10;;;;;;;2.60;2.40;;;;;;;17.63;47.41;99544.41;10267950;28;20230;-68
2023/07/26 22:52:11;;;;;;;3.90;2.40;;;;;;;17.95;46.97;99516.91;10273793;28;20330;-68
2023/07/26 22:57:13;;;;;;;2.60;2.40;;;;;;;17.53;47.58;99561.19;10274979;28;20244;-70
2023/07/26 23:02:17;;;;;;;3.03;2.37;;;;;;;17.57;47.59;99510.13;10269411;28;20226;-68
2023/07/26 23:07:19;;;;;;;5.47;2.47;;;;;;;17.21;47.89;99603.13;10266281;28;20389;-68
2023/07/26 23:12:21;;;;;;;3.57;2.37;;;;;;;17.51;48.46;99478.63;10267651;28;20226;-67
2023/07/26 23:17:23;;;;;;;3.13;2.80;;;;;;;17.36;47.86;99562.97;10271517;28;20231;-68
2023/07/26 23:22:25;;;;;;;3.00;2.43;;;;;;;17.38;48.11;99532.97;10268364;28;20237;-68
2023/07/26 23:27:27;;;;;;;3.40;2.50;;;;;;;17.95;47.62;99461.94;10267847;28;20411;-68